createdAt,value
2018-03-07T00:01:42.620Z,92567.38
2018-03-07T00:04:11.056Z,92567.53
2018-03-07T00:06:39.533Z,92564.09
2018-03-07T00:09:07.933Z,92572.23
2018-03-07T00:11:36.356Z,92564.69
2018-03-07T00:14:04.776Z,92565.30
2018-03-07T00:16:33.183Z,92566.52
2018-03-07T00:19:01.941Z,92571.16
2018-03-07T00:21:30.335Z,92566.41
2018-03-07T00:23:58.749Z,92575.31
2018-03-07T00:26:27.155Z,92570.88
2018-03-07T00:28:55.546Z,92575.06
2018-03-07T00:31:24.022Z,92571.98
2018-03-07T00:33:52.425Z,92573.02
2018-03-07T00:36:20.839Z,92568.19
2018-03-07T00:38:49.248Z,92570.99
2018-03-07T00:41:17.836Z,92575.83
2018-03-07T00:43:46.261Z,92571.63
2018-03-07T00:46:14.683Z,92570.92
2018-03-07T00:48:43.084Z,92578.30
2018-03-07T00:51:11.584Z,92575.86
2018-03-07T00:53:40.062Z,92580.88
2018-03-07T00:56:08.481Z,92581.75
2018-03-07T00:58:36.888Z,92575.03
2018-03-07T01:01:05.299Z,92578.05
2018-03-07T01:03:33.701Z,92581.32
2018-03-07T01:06:02.280Z,92583.86
2018-03-07T01:08:30.692Z,92580.37
2018-03-07T01:10:59.207Z,92572.31
2018-03-07T01:13:27.625Z,92575.68
2018-03-07T01:15:56.172Z,92572.83
2018-03-07T01:18:24.592Z,92570.59
2018-03-07T01:20:53.104Z,92567.76
2018-03-07T01:23:21.514Z,92567.27
2018-03-07T01:25:50.048Z,92571.63
2018-03-07T01:28:18.459Z,92568.39
2018-03-07T01:30:47.103Z,92570.31
2018-03-07T01:33:15.516Z,92566.62
2018-03-07T01:35:43.939Z,92567.80
2018-03-07T01:38:12.349Z,92563.13
2018-03-07T01:40:40.756Z,92564.85
2018-03-07T01:43:09.241Z,92560.00
2018-03-07T01:45:37.633Z,92560.25
2018-03-07T01:48:06.043Z,92564.64
2018-03-07T01:50:34.545Z,92559.25
2018-03-07T01:53:02.940Z,92564.95
2018-03-07T01:55:31.464Z,92566.45
2018-03-07T01:57:59.883Z,92563.34
2018-03-07T02:00:28.307Z,92555.02
2018-03-07T02:02:56.720Z,92557.80
2018-03-07T02:05:25.119Z,92548.28
2018-03-07T02:07:53.635Z,92550.94
2018-03-07T02:12:55.712Z,92552.09
2018-03-07T02:15:24.120Z,92550.55
2018-03-07T02:17:52.527Z,92553.53
2018-03-07T02:20:20.943Z,92555.81
2018-03-07T02:22:49.348Z,92559.30
2018-03-07T02:25:17.796Z,92556.19
2018-03-07T02:27:47.224Z,92560.58
2018-03-07T02:30:15.644Z,92559.27
2018-03-07T02:32:44.091Z,92554.22
2018-03-07T02:35:12.501Z,92556.17
2018-03-07T02:37:40.975Z,92554.60
2018-03-07T02:40:09.403Z,92559.32
2018-03-07T02:42:37.816Z,92554.88
2018-03-07T02:45:06.224Z,92557.95
2018-03-07T02:47:34.635Z,92554.67
2018-03-07T02:50:03.182Z,92550.81
2018-03-07T02:52:31.604Z,92549.84
2018-03-07T02:55:00.025Z,92547.14
2018-03-07T02:57:28.444Z,92553.17
2018-03-07T02:59:56.902Z,92555.06
2018-03-07T03:02:25.378Z,92559.46
2018-03-07T03:04:53.855Z,92559.48
2018-03-07T03:07:22.272Z,92560.27
2018-03-07T03:09:50.696Z,92563.84
2018-03-07T03:12:19.090Z,92564.19
2018-03-07T03:14:47.560Z,92560.76
2018-03-07T03:17:15.988Z,92562.59
2018-03-07T03:19:44.468Z,92561.74
2018-03-07T03:22:12.882Z,92564.72
2018-03-07T03:24:41.295Z,92564.81
2018-03-07T03:27:09.770Z,92566.65
2018-03-07T03:29:38.183Z,92566.09
2018-03-07T03:32:06.596Z,92569.73
2018-03-07T03:34:35.007Z,92565.00
2018-03-07T03:37:03.415Z,92568.22
2018-03-07T03:39:31.887Z,92572.84
2018-03-07T03:42:00.286Z,92570.32
2018-03-07T03:44:28.738Z,92575.29
2018-03-07T03:46:57.143Z,92575.72
2018-03-07T03:49:25.580Z,92572.16
2018-03-07T03:51:54.001Z,92575.05
2018-03-07T03:54:22.404Z,92571.93
2018-03-07T03:56:51.204Z,92577.36
2018-03-07T03:59:19.615Z,92574.44
2018-03-07T04:01:48.110Z,92577.75
2018-03-07T04:04:16.517Z,92579.31
2018-03-07T04:06:44.919Z,92574.89
2018-03-07T04:09:13.315Z,92584.45
2018-03-07T04:11:41.717Z,92582.86
2018-03-07T04:14:10.156Z,92584.72
2018-03-07T04:16:38.564Z,92584.52
2018-03-07T04:19:06.954Z,92581.84
2018-03-07T04:21:35.381Z,92581.93
2018-03-07T04:24:03.766Z,92580.54
2018-03-07T04:26:32.199Z,92576.81
2018-03-07T04:29:00.591Z,92579.56
2018-03-07T04:31:29.046Z,92570.83
2018-03-07T04:33:57.535Z,92570.68
2018-03-07T04:36:25.958Z,92575.84
2018-03-07T04:38:54.347Z,92579.31
2018-03-07T04:41:22.741Z,92578.77
2018-03-07T04:43:51.135Z,92570.51
2018-03-07T04:46:19.675Z,92586.75
2018-03-07T04:48:48.092Z,92581.34
2018-03-07T04:51:16.825Z,92587.58
2018-03-07T04:53:45.234Z,92590.97
2018-03-07T04:56:13.618Z,92586.18
2018-03-07T04:58:42.069Z,92590.52
2018-03-07T05:01:10.547Z,92583.97
2018-03-07T05:03:38.940Z,92586.78
2018-03-07T05:06:07.361Z,92587.22
2018-03-07T05:08:35.768Z,92582.78
2018-03-07T05:11:04.232Z,92586.25
2018-03-07T05:13:32.748Z,92583.98
2018-03-07T05:16:01.157Z,92583.21
2018-03-07T05:18:30.284Z,92588.29
2018-03-07T05:20:58.823Z,92586.56
2018-03-07T05:23:27.227Z,92583.98
2018-03-07T05:25:55.638Z,92594.77
2018-03-07T05:28:24.036Z,92592.87
2018-03-07T05:30:52.512Z,92587.75
2018-03-07T05:33:21.056Z,92588.97
2018-03-07T05:35:49.459Z,92592.13
2018-03-07T05:38:17.868Z,92595.13
2018-03-07T05:40:46.251Z,92597.34
2018-03-07T05:43:14.663Z,92600.95
2018-03-07T05:45:43.128Z,92603.73
2018-03-07T05:48:11.529Z,92610.51
2018-03-07T05:50:39.948Z,92606.48
2018-03-07T05:53:08.330Z,92612.94
2018-03-07T05:55:36.702Z,92612.12
2018-03-07T05:58:05.156Z,92620.76
2018-03-07T06:00:33.646Z,92624.26
2018-03-07T06:03:02.059Z,92623.39
2018-03-07T06:05:30.611Z,92630.80
2018-03-07T06:07:59.016Z,92636.48
2018-03-07T06:10:27.464Z,92632.94
2018-03-07T06:12:55.969Z,92638.03
2018-03-07T06:15:24.391Z,92641.34
2018-03-07T06:17:52.825Z,92640.77
2018-03-07T06:20:21.232Z,92646.87
2018-03-07T06:22:50.022Z,92654.37
2018-03-07T06:25:18.385Z,92652.00
2018-03-07T06:27:46.859Z,92658.18
2018-03-07T06:30:15.274Z,92662.73
2018-03-07T06:32:43.680Z,92666.99
2018-03-07T06:35:12.142Z,92666.13
2018-03-07T06:37:40.544Z,92661.86
2018-03-07T06:40:08.960Z,92664.52
2018-03-07T06:42:37.361Z,92666.42
2018-03-07T06:45:05.811Z,92674.21
2018-03-07T06:47:34.227Z,92674.44
2018-03-07T06:50:02.635Z,92678.48
2018-03-07T06:52:31.045Z,92678.45
2018-03-07T06:54:59.501Z,92682.77
2018-03-07T06:57:28.026Z,92684.99
2018-03-07T06:59:59.182Z,92686.15
2018-03-07T07:02:27.644Z,92686.81
2018-03-07T07:04:56.118Z,92688.65
2018-03-07T07:07:25.581Z,92698.30
2018-03-07T07:09:54.053Z,92698.27
2018-03-07T07:12:22.458Z,92701.05
2018-03-07T07:14:50.976Z,92705.27
2018-03-07T07:17:22.573Z,92705.98
2018-03-07T07:19:51.083Z,92705.56
2018-03-07T07:22:19.614Z,92706.73
2018-03-07T07:24:48.162Z,92715.63
2018-03-07T07:27:16.548Z,92722.84
2018-03-07T07:29:45.018Z,92722.11
2018-03-07T07:32:13.435Z,92727.58
2018-03-07T07:34:41.914Z,92722.27
2018-03-07T07:37:10.322Z,92718.53
2018-03-07T07:39:38.725Z,92725.59
2018-03-07T07:42:07.118Z,92732.50
2018-03-07T07:44:35.516Z,92732.08
2018-03-07T07:47:03.918Z,92729.10
2018-03-07T07:49:32.297Z,92734.30
2018-03-07T07:52:00.877Z,92732.01
2018-03-07T07:54:29.332Z,92734.82
2018-03-07T07:56:57.702Z,92731.13
2018-03-07T07:59:26.122Z,92736.73
2018-03-07T08:01:54.612Z,92739.45
2018-03-07T08:04:22.988Z,92733.36
2018-03-07T08:06:51.357Z,92734.09
2018-03-07T08:09:19.766Z,92738.16
2018-03-07T08:11:48.159Z,92745.01
2018-03-07T08:14:16.595Z,92748.90
2018-03-07T08:16:45.003Z,92742.32
2018-03-07T08:19:13.550Z,92741.38
2018-03-07T08:21:42.024Z,92741.78
2018-03-07T08:24:10.431Z,92753.30
2018-03-07T08:26:38.831Z,92742.02
2018-03-07T08:29:07.236Z,92749.73
2018-03-07T08:31:35.688Z,92744.47
2018-03-07T08:34:04.084Z,92752.03
2018-03-07T08:36:32.507Z,92746.25
2018-03-07T08:39:00.912Z,92748.09
2018-03-07T08:41:29.321Z,92747.50
2018-03-07T08:43:57.721Z,92741.62
2018-03-07T08:46:26.201Z,92748.45
2018-03-07T08:48:54.665Z,92747.78
2018-03-07T08:51:23.088Z,92753.80
2018-03-07T08:53:51.494Z,92752.25
2018-03-07T08:56:19.862Z,92744.77
2018-03-07T08:58:48.277Z,92747.47
2018-03-07T09:01:16.875Z,92754.48
2018-03-07T09:03:45.979Z,92753.24
2018-03-07T09:06:14.405Z,92754.94
2018-03-07T09:08:42.814Z,92756.67
2018-03-07T09:11:11.219Z,92759.80
2018-03-07T09:13:39.667Z,92768.78
2018-03-07T09:16:08.096Z,92759.77
2018-03-07T09:18:36.578Z,92762.39
2018-03-07T09:21:04.959Z,92768.41
2018-03-07T09:23:33.350Z,92764.53
2018-03-07T09:26:01.840Z,92764.33
2018-03-07T09:28:30.236Z,92760.98
2018-03-07T09:30:58.676Z,92774.80
2018-03-07T09:33:27.128Z,92770.52
2018-03-07T09:35:55.544Z,92767.38
2018-03-07T09:38:24.040Z,92767.70
2018-03-07T09:40:52.451Z,92777.52
2018-03-07T09:43:20.928Z,92779.27
2018-03-07T09:45:49.351Z,92793.25
2018-03-07T09:48:17.748Z,92789.46
2018-03-07T09:50:46.155Z,92787.95
2018-03-07T09:53:14.556Z,92791.64
2018-03-07T09:55:43.389Z,92790.69
2018-03-07T09:58:11.804Z,92795.91
2018-03-07T10:00:40.248Z,92790.27
2018-03-07T10:03:08.648Z,92794.72
2018-03-07T10:05:37.208Z,92795.89
2018-03-07T10:08:05.617Z,92801.41
2018-03-07T10:10:33.996Z,92801.75
2018-03-07T10:13:02.386Z,92802.64
2018-03-07T10:15:30.846Z,92799.22
2018-03-07T10:17:59.319Z,92800.30
2018-03-07T10:20:27.764Z,92800.63
2018-03-07T10:22:56.347Z,92805.42
2018-03-07T10:25:24.722Z,92804.84
2018-03-07T10:27:53.209Z,92804.63
2018-03-07T10:30:21.612Z,92816.53
2018-03-07T10:32:50.010Z,92810.10
2018-03-07T10:35:18.415Z,92816.13
2018-03-07T10:37:46.954Z,92820.53
2018-03-07T10:40:15.398Z,92824.89
2018-03-07T10:42:43.791Z,92825.45
2018-03-07T10:45:12.264Z,92818.72
2018-03-07T10:47:40.660Z,92812.53
2018-03-07T10:50:09.048Z,92812.97
2018-03-07T10:52:37.456Z,92803.67
2018-03-07T10:55:06.002Z,92807.53
2018-03-07T10:57:34.440Z,92813.20
2018-03-07T11:00:02.856Z,92817.67
2018-03-07T11:02:31.365Z,92806.29
2018-03-07T11:04:59.805Z,92816.70
2018-03-07T11:07:28.338Z,92817.52
2018-03-07T11:09:56.706Z,92817.55
2018-03-07T11:12:25.078Z,92811.59
2018-03-07T11:14:53.587Z,92817.89
2018-03-07T11:17:21.992Z,92817.98
2018-03-07T11:19:50.412Z,92820.98
2018-03-07T11:22:18.809Z,92819.66
2018-03-07T11:24:47.232Z,92820.34
2018-03-07T11:27:15.696Z,92824.94
2018-03-07T11:29:44.100Z,92827.59
2018-03-07T11:32:12.531Z,92829.55
2018-03-07T11:34:41.006Z,92825.02
2018-03-07T11:37:09.403Z,92820.61
2018-03-07T11:39:37.873Z,92822.08
2018-03-07T11:42:06.271Z,92826.58
2018-03-07T11:44:34.771Z,92831.36
2018-03-07T11:47:03.253Z,92837.89
2018-03-07T11:49:31.643Z,92843.13
2018-03-07T11:52:00.084Z,92838.06
2018-03-07T11:54:28.492Z,92839.83
2018-03-07T11:56:57.044Z,92845.30
2018-03-07T11:59:25.432Z,92848.16
2018-03-07T12:01:53.931Z,92847.30
2018-03-07T12:04:22.346Z,92846.64
2018-03-07T12:06:50.737Z,92846.67
2018-03-07T12:09:19.152Z,92839.01
2018-03-07T12:11:47.589Z,92836.77
2018-03-07T12:14:16.122Z,92837.61
2018-03-07T12:16:44.518Z,92844.12
2018-03-07T12:19:12.938Z,92843.91
2018-03-07T12:21:41.371Z,92837.14
2018-03-07T12:24:09.894Z,92830.24
2018-03-07T12:26:38.343Z,92828.53
2018-03-07T12:29:06.720Z,92836.30
2018-03-07T12:31:35.095Z,92829.34
2018-03-07T12:34:03.473Z,92828.41
2018-03-07T12:36:31.867Z,92836.02
2018-03-07T12:39:00.341Z,92843.37
2018-03-07T12:41:28.861Z,92835.33
2018-03-07T12:43:57.297Z,92833.72
2018-03-07T12:46:25.743Z,92833.72
2018-03-07T12:48:54.240Z,92825.68
2018-03-07T12:51:22.736Z,92830.71
2018-03-07T12:53:51.153Z,92837.60
2018-03-07T12:56:19.729Z,92832.30
2018-03-07T12:58:48.208Z,92843.37
2018-03-07T13:01:16.607Z,92837.02
2018-03-07T13:03:44.994Z,92844.16
2018-03-07T13:06:13.392Z,92840.53
2018-03-07T13:08:42.025Z,92842.77
2018-03-07T13:11:10.431Z,92837.89
2018-03-07T13:13:38.816Z,92832.60
2018-03-07T13:16:07.209Z,92840.16
2018-03-07T13:18:35.626Z,92838.08
2018-03-07T13:21:04.080Z,92848.61
2018-03-07T13:23:32.497Z,92842.27
2018-03-07T13:26:00.943Z,92852.25
2018-03-07T13:28:29.356Z,92848.98
2018-03-07T13:30:57.768Z,92844.51
2018-03-07T13:33:26.188Z,92843.66
2018-03-07T13:35:54.608Z,92848.56
2018-03-07T13:38:23.083Z,92852.35
2018-03-07T13:40:51.506Z,92850.42
2018-03-07T13:43:19.901Z,92850.91
2018-03-07T13:45:48.296Z,92850.53
2018-03-07T13:48:16.659Z,92854.13
2018-03-07T13:50:45.088Z,92852.58
2018-03-07T13:53:13.452Z,92860.50
2018-03-07T13:55:41.828Z,92861.78
2018-03-07T13:58:10.210Z,92860.03
2018-03-07T14:00:38.633Z,92868.36
2018-03-07T14:03:07.043Z,92862.28
2018-03-07T14:05:35.447Z,92868.55
2018-03-07T14:08:03.846Z,92870.95
2018-03-07T14:10:32.297Z,92868.39
2018-03-07T14:13:00.716Z,92868.72
2018-03-07T14:15:29.158Z,92870.88
2018-03-07T14:17:57.528Z,92871.04
2018-03-07T14:20:25.926Z,92877.14
2018-03-07T14:22:54.276Z,92876.91
2018-03-07T14:25:22.643Z,92875.39
2018-03-07T14:27:51.308Z,92878.08
2018-03-07T14:30:19.670Z,92879.40
2018-03-07T14:32:48.035Z,92876.48
2018-03-07T14:35:16.462Z,92872.66
2018-03-07T14:37:44.885Z,92881.38
2018-03-07T14:40:13.382Z,92875.94
2018-03-07T14:42:41.749Z,92878.07
2018-03-07T14:45:10.123Z,92883.56
2018-03-07T14:47:38.507Z,92875.03
2018-03-07T14:50:08.417Z,92876.19
2018-03-07T14:52:37.027Z,92873.09
2018-03-07T14:55:05.698Z,92878.78
2018-03-07T14:57:34.090Z,92878.59
2018-03-07T15:00:02.566Z,92875.97
2018-03-07T15:02:30.990Z,92878.64
2018-03-07T15:05:00.610Z,92882.12
2018-03-07T15:07:30.796Z,92879.19
2018-03-07T15:09:59.399Z,92882.33
2018-03-07T15:12:28.055Z,92881.50
2018-03-07T15:14:56.457Z,92872.29
2018-03-07T15:17:24.941Z,92878.34
2018-03-07T15:19:53.381Z,92878.59
2018-03-07T15:22:21.780Z,92882.34
2018-03-07T15:24:50.196Z,92879.75
2018-03-07T15:27:18.773Z,92889.73
2018-03-07T15:29:47.256Z,92883.46
2018-03-07T15:32:16.791Z,92881.16
2018-03-07T15:34:45.573Z,92879.36
2018-03-07T15:37:13.991Z,92878.47
2018-03-07T15:39:42.441Z,92883.97
2018-03-07T15:42:10.896Z,92883.77
2018-03-07T15:44:39.481Z,92881.95
2018-03-07T15:47:07.939Z,92886.73
2018-03-07T15:49:36.387Z,92885.58
2018-03-07T15:52:04.756Z,92895.80
2018-03-07T15:54:33.359Z,92893.95
2018-03-07T15:57:01.747Z,92889.11
2018-03-07T15:59:30.200Z,92893.23
2018-03-07T16:01:58.695Z,92897.23
2018-03-07T16:04:27.127Z,92896.58
2018-03-07T16:06:55.667Z,92895.86
2018-03-07T16:09:24.173Z,92896.13
2018-03-07T16:11:52.604Z,92900.13
2018-03-07T16:14:21.182Z,92899.02
2018-03-07T16:16:49.582Z,92908.66
2018-03-07T16:19:18.070Z,92907.63
2018-03-07T16:21:46.442Z,92906.57
2018-03-07T16:24:14.826Z,92903.45
2018-03-07T16:26:43.253Z,92907.23
2018-03-07T16:29:11.705Z,92907.99
2018-03-07T16:31:40.136Z,92910.22
2018-03-07T16:34:08.748Z,92909.12
2018-03-07T16:36:37.420Z,92908.42
2018-03-07T16:39:05.887Z,92904.13
2018-03-07T16:41:34.484Z,92906.91
2018-03-07T16:44:03.496Z,92907.25
2018-03-07T16:46:31.854Z,92906.85
2018-03-07T16:49:00.384Z,92915.41
2018-03-07T16:51:28.775Z,92920.59
2018-03-07T16:53:57.568Z,92917.77
2018-03-07T16:56:26.276Z,92920.52
2018-03-07T16:58:54.692Z,92927.70
2018-03-07T17:01:23.096Z,92917.83
2018-03-07T17:03:51.480Z,92929.58
2018-03-07T17:06:19.967Z,92925.99
2018-03-07T17:08:50.760Z,92937.49
2018-03-07T17:11:20.226Z,92938.33
2018-03-07T17:13:48.746Z,92936.17
2018-03-07T17:16:17.158Z,92943.83
2018-03-07T17:18:45.543Z,92937.52
2018-03-07T17:21:13.911Z,92939.70
2018-03-07T17:23:42.270Z,92939.88
2018-03-07T17:26:10.749Z,92942.09
2018-03-07T17:31:12.840Z,92935.41
2018-03-07T17:33:41.219Z,92938.20
2018-03-07T17:36:09.584Z,92939.80
2018-03-07T17:38:38.000Z,92939.59
2018-03-07T17:41:06.445Z,92937.65
2018-03-07T17:43:34.923Z,92943.14
2018-03-07T17:46:03.313Z,92943.80
2018-03-07T17:48:31.690Z,92951.58
2018-03-07T17:51:00.094Z,92949.39
2018-03-07T17:53:28.490Z,92950.35
2018-03-07T17:55:56.962Z,92950.84
2018-03-07T17:58:25.352Z,92952.26
2018-03-07T18:00:53.791Z,92958.66
2018-03-07T18:03:22.180Z,92963.83
2018-03-07T18:05:50.575Z,92966.67
2018-03-07T18:08:18.972Z,92968.21
2018-03-07T18:10:47.343Z,92967.25
2018-03-07T18:13:15.792Z,92963.07
2018-03-07T18:15:44.189Z,92959.09
2018-03-07T18:18:12.540Z,92974.70
2018-03-07T18:20:40.927Z,92969.06
2018-03-07T18:23:09.336Z,92972.78
2018-03-07T18:25:37.965Z,92973.52
2018-03-07T18:28:06.473Z,92971.41
2018-03-07T18:30:34.883Z,92978.00
2018-03-07T18:33:03.280Z,92981.84
2018-03-07T18:35:31.670Z,92974.17
2018-03-07T18:38:00.302Z,92979.16
2018-03-07T18:40:29.394Z,92985.64
2018-03-07T18:42:57.771Z,92989.08
2018-03-07T18:45:26.216Z,92984.62
2018-03-07T18:47:54.574Z,92983.84
2018-03-07T18:50:22.966Z,92991.09
2018-03-07T18:52:51.335Z,92993.48
2018-03-07T18:55:19.821Z,92991.84
2018-03-07T18:57:48.175Z,92990.52
2018-03-07T19:00:16.547Z,92993.94
2018-03-07T19:02:44.967Z,92995.56
2018-03-07T19:05:13.337Z,92993.10
2018-03-07T19:07:41.984Z,92988.16
2018-03-07T19:10:10.431Z,92997.61
2018-03-07T19:12:38.928Z,92995.44
2018-03-07T19:15:07.370Z,93001.58
2018-03-07T19:17:35.790Z,92996.88
2018-03-07T19:20:04.730Z,92994.24
2018-03-07T19:22:33.109Z,92997.97
2018-03-07T19:25:01.545Z,92993.77
2018-03-07T19:27:29.942Z,92994.66
2018-03-07T19:29:58.351Z,92997.95
2018-03-07T19:32:26.829Z,92998.60
2018-03-07T19:34:55.235Z,92997.89
2018-03-07T19:37:23.611Z,93003.70
2018-03-07T19:39:51.984Z,93008.39
2018-03-07T19:42:20.407Z,93001.27
2018-03-07T19:44:48.807Z,93014.66
2018-03-07T19:47:17.208Z,93012.23
2018-03-07T19:49:45.676Z,93012.19
2018-03-07T19:52:14.108Z,93011.56
2018-03-07T19:54:42.665Z,93010.70
2018-03-07T19:57:11.061Z,93021.23
2018-03-07T19:59:39.572Z,93017.33
2018-03-07T20:02:08.000Z,93019.91
2018-03-07T20:04:36.429Z,93020.37
2018-03-07T20:07:04.865Z,93015.52
2018-03-07T20:09:33.251Z,93014.23
2018-03-07T20:12:01.683Z,93020.07
2018-03-07T20:14:30.250Z,93017.70
2018-03-07T20:16:58.719Z,93018.91
2018-03-07T20:19:27.159Z,93023.80
2018-03-07T20:21:55.671Z,93023.38
2018-03-07T20:24:24.158Z,93029.20
2018-03-07T20:26:52.559Z,93033.73
2018-03-07T20:29:21.108Z,93037.41
2018-03-07T20:31:49.559Z,93038.64
2018-03-07T20:34:17.992Z,93044.72
2018-03-07T20:36:46.434Z,93042.36
2018-03-07T20:39:14.852Z,93050.74
2018-03-07T20:41:43.352Z,93053.62
2018-03-07T20:44:11.761Z,93051.98
2018-03-07T20:46:40.227Z,93056.48
2018-03-07T20:49:08.595Z,93056.41
2018-03-07T20:51:36.990Z,93058.73
2018-03-07T20:54:05.377Z,93063.21
2018-03-07T20:56:33.787Z,93063.09
2018-03-07T20:59:02.329Z,93070.61
2018-03-07T21:01:30.732Z,93069.28
2018-03-07T21:03:59.654Z,93061.19
2018-03-07T21:06:28.020Z,93073.06
2018-03-07T21:08:56.440Z,93072.06
2018-03-07T21:11:24.986Z,93073.16
2018-03-07T21:13:53.421Z,93079.12
2018-03-07T21:16:21.888Z,93078.96
2018-03-07T21:18:50.309Z,93083.69
2018-03-07T21:21:18.689Z,93082.22
2018-03-07T21:23:47.096Z,93084.27
2018-03-07T21:26:15.499Z,93089.94
2018-03-07T21:28:43.929Z,93086.11
2018-03-07T21:31:12.335Z,93087.06
2018-03-07T21:33:41.123Z,93091.86
2018-03-07T21:36:09.874Z,93088.50
2018-03-07T21:38:38.430Z,93088.26
2018-03-07T21:41:06.868Z,93090.33
2018-03-07T21:43:35.258Z,93091.27
2018-03-07T21:46:03.636Z,93097.34
2018-03-07T21:48:32.207Z,93082.27
2018-03-07T21:51:00.657Z,93087.42
2018-03-07T21:53:29.075Z,93099.28
2018-03-07T21:55:57.503Z,93094.01
2018-03-07T21:58:25.892Z,93103.18
2018-03-07T22:00:54.519Z,93101.91
2018-03-07T22:03:22.921Z,93102.13
2018-03-07T22:05:51.298Z,93106.78
2018-03-07T22:08:19.701Z,93106.62
2018-03-07T22:10:48.110Z,93111.99
2018-03-07T22:13:16.957Z,93111.78
2018-03-07T22:15:45.394Z,93114.50
2018-03-07T22:18:13.861Z,93114.42
2018-03-07T22:20:42.320Z,93115.20
2018-03-07T22:23:10.705Z,93108.95
2018-03-07T22:25:39.124Z,93117.95
2018-03-07T22:28:07.516Z,93122.52
2018-03-07T22:30:35.879Z,93121.77
2018-03-07T22:33:04.254Z,93126.66
2018-03-07T22:35:32.639Z,93125.37
2018-03-07T22:38:03.697Z,93120.26
2018-03-07T22:40:39.717Z,93122.73
2018-03-07T22:43:09.464Z,93127.04
2018-03-07T22:45:37.850Z,93135.98
2018-03-07T22:48:06.256Z,93143.06
2018-03-07T22:50:34.648Z,93137.56
2018-03-07T22:53:03.018Z,93138.70
2018-03-07T22:55:31.409Z,93140.52
2018-03-07T22:57:59.808Z,93150.15
2018-03-07T23:00:33.840Z,93145.30
2018-03-07T23:03:02.232Z,93158.77
2018-03-07T23:05:30.636Z,93149.20
2018-03-07T23:07:59.027Z,93152.27
2018-03-07T23:10:27.408Z,93149.10
2018-03-07T23:12:56.047Z,93150.06
2018-03-07T23:15:24.705Z,93151.36
2018-03-07T23:17:53.077Z,93160.50
2018-03-07T23:20:21.481Z,93154.84
2018-03-07T23:22:50.056Z,93162.08
2018-03-07T23:25:18.663Z,93167.17
2018-03-07T23:27:47.051Z,93169.31
2018-03-07T23:30:15.463Z,93164.75
2018-03-07T23:32:43.846Z,93170.05
2018-03-07T23:35:12.230Z,93171.85
2018-03-07T23:37:40.625Z,93170.42
2018-03-07T23:40:09.021Z,93173.30
2018-03-07T23:42:37.575Z,93169.98
2018-03-07T23:45:06.288Z,93178.78
2018-03-07T23:47:34.687Z,93182.03
2018-03-07T23:50:03.071Z,93184.58
2018-03-07T23:52:31.467Z,93184.42
2018-03-07T23:54:59.972Z,93180.73
2018-03-07T23:57:28.374Z,93184.85
2018-03-07T23:59:56.772Z,93196.04
